sensor_id;sensor_type;location;lat;lon;timestamp;P1;durP1;ratioP1;P2;durP2;ratioP2
53269;SDS011;39159;45.634;9.420;2023-06-04T00:01:08;5.90;;;5.00;;
53269;SDS011;39159;45.634;9.420;2023-06-04T00:03:34;6.57;;;4.57;;
53269;SDS011;39159;45.634;9.420;2023-06-04T00:06:00;5.85;;;4.90;;
53269;SDS011;39159;45.634;9.420;2023-06-04T00:08:25;5.90;;;4.70;;
53269;SDS011;39159;45.634;9.420;2023-06-04T00:10:51;7.60;;;5.40;;
53269;SDS011;39159;45.634;9.420;2023-06-04T00:13:16;5.97;;;4.32;;
53269;SDS011;39159;45.634;9.420;2023-06-04T00:15:42;5.22;;;4.40;;
53269;SDS011;39159;45.634;9.420;2023-06-04T00:18:08;11.85;;;6.07;;
53269;SDS011;39159;45.634;9.420;2023-06-04T00:20:33;7.53;;;5.65;;
53269;SDS011;39159;45.634;9.420;2023-06-04T00:23:00;7.18;;;5.75;;
53269;SDS011;39159;45.634;9.420;2023-06-04T00:25:25;11.32;;;7.07;;
53269;SDS011;39159;45.634;9.420;2023-06-04T00:27:51;12.02;;;8.88;;
53269;SDS011;39159;45.634;9.420;2023-06-04T00:30:16;11.98;;;8.68;;
53269;SDS011;39159;45.634;9.420;2023-06-04T00:32:42;11.85;;;10.23;;
53269;SDS011;39159;45.634;9.420;2023-06-04T00:35:08;14.20;;;11.18;;
53269;SDS011;39159;45.634;9.420;2023-06-04T00:37:34;16.00;;;11.77;;
53269;SDS011;39159;45.634;9.420;2023-06-04T00:40:00;15.98;;;12.02;;
53269;SDS011;39159;45.634;9.420;2023-06-04T00:42:25;14.18;;;11.90;;
53269;SDS011;39159;45.634;9.420;2023-06-04T00:44:51;19.05;;;13.15;;
53269;SDS011;39159;45.634;9.420;2023-06-04T00:47:17;16.90;;;13.70;;
53269;SDS011;39159;45.634;9.420;2023-06-04T00:49:45;16.95;;;13.15;;
53269;SDS011;39159;45.634;9.420;2023-06-04T00:52:12;22.23;;;14.20;;
53269;SDS011;39159;45.634;9.420;2023-06-04T00:54:40;17.58;;;13.68;;
53269;SDS011;39159;45.634;9.420;2023-06-04T00:57:05;15.98;;;12.80;;
53269;SDS011;39159;45.634;9.420;2023-06-04T00:59:34;19.15;;;12.68;;
53269;SDS011;39159;45.634;9.420;2023-06-04T01:04:37;17.38;;;13.32;;
53269;SDS011;39159;45.634;9.420;2023-06-04T01:07:09;25.48;;;16.15;;
53269;SDS011;39159;45.634;9.420;2023-06-04T01:09:38;20.77;;;16.38;;
53269;SDS011;39159;45.634;9.420;2023-06-04T01:12:04;22.20;;;16.70;;
53269;SDS011;39159;45.634;9.420;2023-06-04T01:14:31;19.13;;;16.38;;
53269;SDS011;39159;45.634;9.420;2023-06-04T01:17:02;19.27;;;15.10;;
53269;SDS011;39159;45.634;9.420;2023-06-04T01:19:41;23.60;;;17.80;;
53269;SDS011;39159;45.634;9.420;2023-06-04T01:22:17;24.90;;;18.65;;
53269;SDS011;39159;45.634;9.420;2023-06-04T01:24:56;22.17;;;17.27;;
53269;SDS011;39159;45.634;9.420;2023-06-04T01:27:27;23.42;;;18.55;;
53269;SDS011;39159;45.634;9.420;2023-06-04T01:29:55;20.50;;;16.48;;
53269;SDS011;39159;45.634;9.420;2023-06-04T01:32:23;20.60;;;16.27;;
53269;SDS011;39159;45.634;9.420;2023-06-04T01:34:49;21.00;;;17.50;;
53269;SDS011;39159;45.634;9.420;2023-06-04T01:37:14;22.00;;;17.75;;
53269;SDS011;39159;45.634;9.420;2023-06-04T01:39:41;20.38;;;16.35;;
53269;SDS011;39159;45.634;9.420;2023-06-04T01:42:08;23.33;;;17.85;;
53269;SDS011;39159;45.634;9.420;2023-06-04T01:44:34;21.60;;;18.10;;
53269;SDS011;39159;45.634;9.420;2023-06-04T01:46:59;26.05;;;18.73;;
53269;SDS011;39159;45.634;9.420;2023-06-04T01:49:25;25.73;;;19.83;;
53269;SDS011;39159;45.634;9.420;2023-06-04T01:51:50;21.23;;;17.60;;
53269;SDS011;39159;45.634;9.420;2023-06-04T01:54:16;19.17;;;15.93;;
53269;SDS011;39159;45.634;9.420;2023-06-04T01:56:42;25.55;;;18.13;;
53269;SDS011;39159;45.634;9.420;2023-06-04T01:59:08;26.98;;;21.15;;
53269;SDS011;39159;45.634;9.420;2023-06-04T02:01:37;24.23;;;18.42;;
53269;SDS011;39159;45.634;9.420;2023-06-04T02:04:05;26.25;;;19.98;;
53269;SDS011;39159;45.634;9.420;2023-06-04T02:06:31;25.13;;;20.23;;
53269;SDS011;39159;45.634;9.420;2023-06-04T02:08:56;25.70;;;20.67;;
53269;SDS011;39159;45.634;9.420;2023-06-04T02:11:21;25.10;;;18.77;;
53269;SDS011;39159;45.634;9.420;2023-06-04T02:13:47;28.20;;;20.95;;
53269;SDS011;39159;45.634;9.420;2023-06-04T02:16:12;28.23;;;20.65;;
53269;SDS011;39159;45.634;9.420;2023-06-04T02:18:38;25.60;;;18.92;;
53269;SDS011;39159;45.634;9.420;2023-06-04T02:21:03;24.75;;;20.33;;
53269;SDS011;39159;45.634;9.420;2023-06-04T02:23:29;27.77;;;21.38;;
53269;SDS011;39159;45.634;9.420;2023-06-04T02:25:55;29.48;;;22.67;;
53269;SDS011;39159;45.634;9.420;2023-06-04T02:28:20;28.95;;;23.48;;
53269;SDS011;39159;45.634;9.420;2023-06-04T02:30:46;26.90;;;22.50;;
53269;SDS011;39159;45.634;9.420;2023-06-04T02:33:12;29.50;;;21.95;;
53269;SDS011;39159;45.634;9.420;2023-06-04T02:35:38;28.63;;;21.75;;
53269;SDS011;39159;45.634;9.420;2023-06-04T02:38:03;30.75;;;22.85;;
53269;SDS011;39159;45.634;9.420;2023-06-04T02:40:30;27.73;;;21.98;;
53269;SDS011;39159;45.634;9.420;2023-06-04T02:42:55;28.48;;;22.00;;
53269;SDS011;39159;45.634;9.420;2023-06-04T02:45:22;27.25;;;20.55;;
53269;SDS011;39159;45.634;9.420;2023-06-04T02:47:47;26.20;;;21.08;;
53269;SDS011;39159;45.634;9.420;2023-06-04T02:50:14;24.30;;;19.52;;
53269;SDS011;39159;45.634;9.420;2023-06-04T02:52:43;27.27;;;21.95;;
53269;SDS011;39159;45.634;9.420;2023-06-04T02:55:09;28.88;;;22.23;;
53269;SDS011;39159;45.634;9.420;2023-06-04T02:57:37;26.25;;;20.60;;
53269;SDS011;39159;45.634;9.420;2023-06-04T03:00:04;27.20;;;21.38;;
53269;SDS011;39159;45.634;9.420;2023-06-04T03:02:37;31.85;;;21.55;;
53269;SDS011;39159;45.634;9.420;2023-06-04T03:05:08;29.15;;;22.75;;
53269;SDS011;39159;45.634;9.420;2023-06-04T03:07:36;25.98;;;20.63;;
53269;SDS011;39159;45.634;9.420;2023-06-04T03:10:02;28.50;;;21.90;;
53269;SDS011;39159;45.634;9.420;2023-06-04T03:12:29;26.13;;;20.10;;
53269;SDS011;39159;45.634;9.420;2023-06-04T03:14:55;29.00;;;20.30;;
53269;SDS011;39159;45.634;9.420;2023-06-04T03:17:20;28.88;;;21.63;;
53269;SDS011;39159;45.634;9.420;2023-06-04T03:19:46;24.15;;;18.45;;
53269;SDS011;39159;45.634;9.420;2023-06-04T03:22:12;25.33;;;20.15;;
53269;SDS011;39159;45.634;9.420;2023-06-04T03:24:39;24.65;;;19.48;;
53269;SDS011;39159;45.634;9.420;2023-06-04T03:27:06;25.80;;;19.90;;
53269;SDS011;39159;45.634;9.420;2023-06-04T03:29:33;25.48;;;20.15;;
53269;SDS011;39159;45.634;9.420;2023-06-04T03:31:59;23.88;;;18.98;;
53269;SDS011;39159;45.634;9.420;2023-06-04T03:34:25;28.92;;;21.08;;
53269;SDS011;39159;45.634;9.420;2023-06-04T03:36:51;25.58;;;20.85;;
53269;SDS011;39159;45.634;9.420;2023-06-04T03:39:17;29.40;;;20.50;;
53269;SDS011;39159;45.634;9.420;2023-06-04T03:41:43;24.05;;;19.17;;
53269;SDS011;39159;45.634;9.420;2023-06-04T03:44:08;24.30;;;19.50;;
53269;SDS011;39159;45.634;9.420;2023-06-04T03:46:34;23.75;;;16.95;;
53269;SDS011;39159;45.634;9.420;2023-06-04T03:49:00;17.42;;;14.50;;
53269;SDS011;39159;45.634;9.420;2023-06-04T03:51:26;17.85;;;13.32;;
53269;SDS011;39159;45.634;9.420;2023-06-04T03:53:51;15.82;;;12.52;;
53269;SDS011;39159;45.634;9.420;2023-06-04T03:56:17;17.63;;;12.20;;
53269;SDS011;39159;45.634;9.420;2023-06-04T03:58:43;15.90;;;11.23;;
53269;SDS011;39159;45.634;9.420;2023-06-04T04:01:08;15.40;;;11.10;;
53269;SDS011;39159;45.634;9.420;2023-06-04T04:03:36;15.80;;;10.60;;
53269;SDS011;39159;45.634;9.420;2023-06-04T04:06:02;11.60;;;9.85;;
53269;SDS011;39159;45.634;9.420;2023-06-04T04:08:27;12.73;;;9.48;;
53269;SDS011;39159;45.634;9.420;2023-06-04T04:10:59;15.30;;;11.52;;
53269;SDS011;39159;45.634;9.420;2023-06-04T04:13:26;14.93;;;11.40;;
53269;SDS011;39159;45.634;9.420;2023-06-04T04:15:51;17.15;;;11.88;;
53269;SDS011;39159;45.634;9.420;2023-06-04T04:18:20;14.20;;;9.40;;
53269;SDS011;39159;45.634;9.420;2023-06-04T04:20:46;12.77;;;7.50;;
53269;SDS011;39159;45.634;9.420;2023-06-04T04:23:12;7.13;;;4.13;;
53269;SDS011;39159;45.634;9.420;2023-06-04T04:25:38;4.65;;;1.80;;
53269;SDS011;39159;45.634;9.420;2023-06-04T04:28:03;10.15;;;2.67;;
53269;SDS011;39159;45.634;9.420;2023-06-04T04:30:35;4.05;;;2.22;;
53269;SDS011;39159;45.634;9.420;2023-06-04T04:33:01;5.47;;;2.22;;
53269;SDS011;39159;45.634;9.420;2023-06-04T04:35:27;6.05;;;3.03;;
53269;SDS011;39159;45.634;9.420;2023-06-04T04:37:54;6.22;;;2.28;;
53269;SDS011;39159;45.634;9.420;2023-06-04T04:40:20;4.45;;;2.33;;
53269;SDS011;39159;45.634;9.420;2023-06-04T04:42:45;6.15;;;2.40;;
53269;SDS011;39159;45.634;9.420;2023-06-04T04:45:11;5.60;;;2.78;;
53269;SDS011;39159;45.634;9.420;2023-06-04T04:47:37;5.35;;;2.60;;
53269;SDS011;39159;45.634;9.420;2023-06-04T04:50:03;7.07;;;2.75;;
53269;SDS011;39159;45.634;9.420;2023-06-04T04:52:29;4.70;;;2.45;;
53269;SDS011;39159;45.634;9.420;2023-06-04T04:54:55;5.32;;;2.65;;
53269;SDS011;39159;45.634;9.420;2023-06-04T04:57:22;4.10;;;2.70;;
53269;SDS011;39159;45.634;9.420;2023-06-04T04:59:48;6.13;;;2.30;;
53269;SDS011;39159;45.634;9.420;2023-06-04T05:02:14;2.88;;;2.10;;
53269;SDS011;39159;45.634;9.420;2023-06-04T05:04:40;3.40;;;1.88;;
53269;SDS011;39159;45.634;9.420;2023-06-04T05:07:06;4.57;;;2.17;;
53269;SDS011;39159;45.634;9.420;2023-06-04T05:09:31;5.68;;;2.38;;
53269;SDS011;39159;45.634;9.420;2023-06-04T05:11:56;6.15;;;2.17;;
53269;SDS011;39159;45.634;9.420;2023-06-04T05:14:22;2.53;;;1.80;;
53269;SDS011;39159;45.634;9.420;2023-06-04T05:16:48;3.35;;;2.00;;
53269;SDS011;39159;45.634;9.420;2023-06-04T05:19:15;5.88;;;1.75;;
53269;SDS011;39159;45.634;9.420;2023-06-04T05:21:41;4.78;;;2.38;;
53269;SDS011;39159;45.634;9.420;2023-06-04T05:24:07;4.22;;;2.05;;
53269;SDS011;39159;45.634;9.420;2023-06-04T05:26:32;3.90;;;1.90;;
53269;SDS011;39159;45.634;9.420;2023-06-04T05:28:58;3.13;;;1.60;;
53269;SDS011;39159;45.634;9.420;2023-06-04T05:31:24;3.22;;;2.00;;
53269;SDS011;39159;45.634;9.420;2023-06-04T05:33:51;3.40;;;2.15;;
53269;SDS011;39159;45.634;9.420;2023-06-04T05:36:17;4.25;;;2.05;;
53269;SDS011;39159;45.634;9.420;2023-06-04T05:38:43;4.95;;;2.55;;
53269;SDS011;39159;45.634;9.420;2023-06-04T05:41:08;3.15;;;1.85;;
53269;SDS011;39159;45.634;9.420;2023-06-04T05:43:34;3.92;;;2.38;;
53269;SDS011;39159;45.634;9.420;2023-06-04T05:46:00;2.45;;;2.15;;
53269;SDS011;39159;45.634;9.420;2023-06-04T05:48:25;4.57;;;1.98;;
53269;SDS011;39159;45.634;9.420;2023-06-04T05:50:51;4.00;;;2.60;;
53269;SDS011;39159;45.634;9.420;2023-06-04T05:53:16;4.07;;;2.10;;
53269;SDS011;39159;45.634;9.420;2023-06-04T05:55:42;3.45;;;2.05;;
53269;SDS011;39159;45.634;9.420;2023-06-04T05:58:08;3.53;;;1.95;;
53269;SDS011;39159;45.634;9.420;2023-06-04T06:00:33;4.03;;;2.10;;
53269;SDS011;39159;45.634;9.420;2023-06-04T06:03:00;7.65;;;2.15;;
53269;SDS011;39159;45.634;9.420;2023-06-04T06:05:26;4.20;;;2.42;;
53269;SDS011;39159;45.634;9.420;2023-06-04T06:07:52;3.90;;;2.33;;
53269;SDS011;39159;45.634;9.420;2023-06-04T06:10:17;3.70;;;2.67;;
53269;SDS011;39159;45.634;9.420;2023-06-04T06:12:43;6.50;;;2.33;;
53269;SDS011;39159;45.634;9.420;2023-06-04T06:15:08;8.10;;;2.78;;
53269;SDS011;39159;45.634;9.420;2023-06-04T06:17:35;6.57;;;2.53;;
53269;SDS011;39159;45.634;9.420;2023-06-04T06:20:00;6.05;;;2.70;;
53269;SDS011;39159;45.634;9.420;2023-06-04T06:22:30;6.75;;;2.40;;
53269;SDS011;39159;45.634;9.420;2023-06-04T06:24:56;4.97;;;2.53;;
53269;SDS011;39159;45.634;9.420;2023-06-04T06:27:22;4.93;;;2.38;;
53269;SDS011;39159;45.634;9.420;2023-06-04T06:29:47;4.97;;;2.45;;
53269;SDS011;39159;45.634;9.420;2023-06-04T06:32:13;3.70;;;2.20;;
53269;SDS011;39159;45.634;9.420;2023-06-04T06:34:38;3.78;;;2.10;;
53269;SDS011;39159;45.634;9.420;2023-06-04T06:37:04;3.72;;;2.13;;
53269;SDS011;39159;45.634;9.420;2023-06-04T06:39:29;2.75;;;1.80;;
53269;SDS011;39159;45.634;9.420;2023-06-04T06:41:55;6.03;;;2.30;;
53269;SDS011;39159;45.634;9.420;2023-06-04T06:44:20;3.53;;;1.95;;
53269;SDS011;39159;45.634;9.420;2023-06-04T06:46:46;3.33;;;2.53;;
53269;SDS011;39159;45.634;9.420;2023-06-04T06:49:13;5.22;;;2.58;;
53269;SDS011;39159;45.634;9.420;2023-06-04T06:51:40;3.47;;;2.75;;
53269;SDS011;39159;45.634;9.420;2023-06-04T06:54:05;3.63;;;2.85;;
53269;SDS011;39159;45.634;9.420;2023-06-04T06:56:30;3.45;;;2.88;;
53269;SDS011;39159;45.634;9.420;2023-06-04T06:58:56;2.97;;;2.67;;
53269;SDS011;39159;45.634;9.420;2023-06-04T07:01:21;3.67;;;2.45;;
53269;SDS011;39159;45.634;9.420;2023-06-04T07:03:47;3.65;;;2.63;;
53269;SDS011;39159;45.634;9.420;2023-06-04T07:06:12;2.50;;;2.13;;
53269;SDS011;39159;45.634;9.420;2023-06-04T07:08:39;3.20;;;2.40;;
53269;SDS011;39159;45.634;9.420;2023-06-04T07:11:04;2.70;;;1.95;;
53269;SDS011;39159;45.634;9.420;2023-06-04T07:13:30;2.42;;;1.70;;
53269;SDS011;39159;45.634;9.420;2023-06-04T07:16:00;2.47;;;1.73;;
53269;SDS011;39159;45.634;9.420;2023-06-04T07:18:26;6.40;;;1.98;;
53269;SDS011;39159;45.634;9.420;2023-06-04T07:20:51;1.88;;;1.50;;
53269;SDS011;39159;45.634;9.420;2023-06-04T07:23:17;2.72;;;1.90;;
53269;SDS011;39159;45.634;9.420;2023-06-04T07:25:43;2.20;;;1.50;;
53269;SDS011;39159;45.634;9.420;2023-06-04T07:28:08;2.45;;;2.15;;
53269;SDS011;39159;45.634;9.420;2023-06-04T07:30:34;7.20;;;1.60;;
53269;SDS011;39159;45.634;9.420;2023-06-04T07:33:00;2.25;;;1.35;;
53269;SDS011;39159;45.634;9.420;2023-06-04T07:35:26;2.13;;;1.48;;
53269;SDS011;39159;45.634;9.420;2023-06-04T07:37:51;1.88;;;1.40;;
53269;SDS011;39159;45.634;9.420;2023-06-04T07:40:17;2.22;;;1.30;;
53269;SDS011;39159;45.634;9.420;2023-06-04T07:42:44;1.50;;;1.30;;
53269;SDS011;39159;45.634;9.420;2023-06-04T07:45:11;1.90;;;1.23;;
53269;SDS011;39159;45.634;9.420;2023-06-04T07:47:36;3.08;;;1.30;;
53269;SDS011;39159;45.634;9.420;2023-06-04T07:50:05;1.58;;;1.20;;
53269;SDS011;39159;45.634;9.420;2023-06-04T07:52:31;3.30;;;1.10;;
53269;SDS011;39159;45.634;9.420;2023-06-04T07:54:57;1.83;;;1.48;;
53269;SDS011;39159;45.634;9.420;2023-06-04T07:57:23;1.63;;;1.27;;
53269;SDS011;39159;45.634;9.420;2023-06-04T07:59:49;4.10;;;1.10;;
53269;SDS011;39159;45.634;9.420;2023-06-04T08:02:16;2.50;;;1.27;;
53269;SDS011;39159;45.634;9.420;2023-06-04T08:04:42;1.40;;;1.10;;
53269;SDS011;39159;45.634;9.420;2023-06-04T08:07:07;1.48;;;1.27;;
53269;SDS011;39159;45.634;9.420;2023-06-04T08:09:33;4.13;;;1.50;;
53269;SDS011;39159;45.634;9.420;2023-06-04T08:11:59;2.08;;;1.70;;
53269;SDS011;39159;45.634;9.420;2023-06-04T08:14:25;8.02;;;2.38;;
53269;SDS011;39159;45.634;9.420;2023-06-04T08:16:52;4.50;;;1.95;;
53269;SDS011;39159;45.634;9.420;2023-06-04T08:19:18;3.67;;;1.98;;
53269;SDS011;39159;45.634;9.420;2023-06-04T08:21:44;3.33;;;2.25;;
53269;SDS011;39159;45.634;9.420;2023-06-04T08:24:10;5.55;;;2.53;;
53269;SDS011;39159;45.634;9.420;2023-06-04T08:26:36;4.43;;;2.53;;
53269;SDS011;39159;45.634;9.420;2023-06-04T08:29:02;2.28;;;2.00;;
53269;SDS011;39159;45.634;9.420;2023-06-04T08:31:31;2.90;;;2.50;;
53269;SDS011;39159;45.634;9.420;2023-06-04T08:33:57;5.32;;;2.42;;
53269;SDS011;39159;45.634;9.420;2023-06-04T08:36:22;5.50;;;2.45;;
53269;SDS011;39159;45.634;9.420;2023-06-04T08:38:48;3.42;;;2.42;;
53269;SDS011;39159;45.634;9.420;2023-06-04T08:41:20;3.67;;;2.40;;
53269;SDS011;39159;45.634;9.420;2023-06-04T08:43:55;3.55;;;2.03;;
53269;SDS011;39159;45.634;9.420;2023-06-04T08:46:21;3.55;;;2.20;;
53269;SDS011;39159;45.634;9.420;2023-06-04T08:48:49;3.88;;;2.17;;
53269;SDS011;39159;45.634;9.420;2023-06-04T08:51:15;4.57;;;2.22;;
53269;SDS011;39159;45.634;9.420;2023-06-04T08:53:42;4.00;;;2.20;;
53269;SDS011;39159;45.634;9.420;2023-06-04T08:56:08;5.30;;;2.28;;
53269;SDS011;39159;45.634;9.420;2023-06-04T08:58:35;5.25;;;2.45;;
53269;SDS011;39159;45.634;9.420;2023-06-04T09:01:01;4.22;;;2.53;;
53269;SDS011;39159;45.634;9.420;2023-06-04T09:03:28;3.38;;;2.35;;
53269;SDS011;39159;45.634;9.420;2023-06-04T09:05:57;3.17;;;2.20;;
53269;SDS011;39159;45.634;9.420;2023-06-04T09:08:24;3.97;;;2.40;;
53269;SDS011;39159;45.634;9.420;2023-06-04T09:10:53;6.10;;;2.65;;
53269;SDS011;39159;45.634;9.420;2023-06-04T09:13:20;4.93;;;2.78;;
53269;SDS011;39159;45.634;9.420;2023-06-04T09:16:00;5.00;;;3.08;;
53269;SDS011;39159;45.634;9.420;2023-06-04T09:18:29;2.70;;;2.42;;
53269;SDS011;39159;45.634;9.420;2023-06-04T09:21:05;4.30;;;2.70;;
53269;SDS011;39159;45.634;9.420;2023-06-04T09:23:45;3.70;;;2.85;;
53269;SDS011;39159;45.634;9.420;2023-06-04T09:26:12;4.78;;;3.10;;
53269;SDS011;39159;45.634;9.420;2023-06-04T09:28:41;4.20;;;2.92;;
53269;SDS011;39159;45.634;9.420;2023-06-04T09:31:10;5.28;;;3.20;;
53269;SDS011;39159;45.634;9.420;2023-06-04T09:33:43;5.55;;;3.30;;
53269;SDS011;39159;45.634;9.420;2023-06-04T09:36:10;5.35;;;3.20;;
53269;SDS011;39159;45.634;9.420;2023-06-04T09:38:35;5.35;;;3.25;;
53269;SDS011;39159;45.634;9.420;2023-06-04T09:41:01;5.22;;;3.00;;
53269;SDS011;39159;45.634;9.420;2023-06-04T09:43:31;3.83;;;3.10;;
53269;SDS011;39159;45.634;9.420;2023-06-04T09:46:07;3.97;;;2.42;;
53269;SDS011;39159;45.634;9.420;2023-06-04T09:48:37;3.78;;;2.40;;
53269;SDS011;39159;45.634;9.420;2023-06-04T09:51:11;3.20;;;2.88;;
53269;SDS011;39159;45.634;9.420;2023-06-04T09:53:40;5.85;;;2.90;;
53269;SDS011;39159;45.634;9.420;2023-06-04T09:56:06;2.88;;;2.58;;
53269;SDS011;39159;45.634;9.420;2023-06-04T09:58:33;4.57;;;2.90;;
53269;SDS011;39159;45.634;9.420;2023-06-04T10:01:01;4.13;;;2.80;;
53269;SDS011;39159;45.634;9.420;2023-06-04T10:03:32;4.25;;;2.97;;
53269;SDS011;39159;45.634;9.420;2023-06-04T10:06:01;6.13;;;3.55;;
53269;SDS011;39159;45.634;9.420;2023-06-04T10:08:29;5.18;;;3.72;;
53269;SDS011;39159;45.634;9.420;2023-06-04T10:10:56;4.70;;;3.40;;
53269;SDS011;39159;45.634;9.420;2023-06-04T10:13:26;6.00;;;3.90;;
53269;SDS011;39159;45.634;9.420;2023-06-04T10:15:56;5.28;;;3.38;;
53269;SDS011;39159;45.634;9.420;2023-06-04T10:18:23;4.72;;;4.18;;
53269;SDS011;39159;45.634;9.420;2023-06-04T10:20:49;5.63;;;3.95;;
53269;SDS011;39159;45.634;9.420;2023-06-04T10:23:17;5.30;;;3.58;;
53269;SDS011;39159;45.634;9.420;2023-06-04T10:25:46;8.07;;;4.00;;
53269;SDS011;39159;45.634;9.420;2023-06-04T10:28:14;5.15;;;3.55;;
53269;SDS011;39159;45.634;9.420;2023-06-04T10:30:40;4.13;;;3.45;;
53269;SDS011;39159;45.634;9.420;2023-06-04T10:33:06;5.93;;;3.30;;
53269;SDS011;39159;45.634;9.420;2023-06-04T10:35:35;5.57;;;4.30;;
53269;SDS011;39159;45.634;9.420;2023-06-04T10:38:05;4.68;;;3.40;;
53269;SDS011;39159;45.634;9.420;2023-06-04T10:40:32;6.43;;;4.57;;
53269;SDS011;39159;45.634;9.420;2023-06-04T10:43:03;5.78;;;4.30;;
53269;SDS011;39159;45.634;9.420;2023-06-04T10:45:33;4.93;;;4.03;;
53269;SDS011;39159;45.634;9.420;2023-06-04T10:47:59;5.43;;;4.20;;
53269;SDS011;39159;45.634;9.420;2023-06-04T10:50:29;4.65;;;3.92;;
53269;SDS011;39159;45.634;9.420;2023-06-04T10:52:55;7.82;;;3.80;;
53269;SDS011;39159;45.634;9.420;2023-06-04T10:55:22;8.52;;;4.90;;
53269;SDS011;39159;45.634;9.420;2023-06-04T10:57:55;7.15;;;5.50;;
53269;SDS011;39159;45.634;9.420;2023-06-04T11:00:22;8.20;;;6.00;;
53269;SDS011;39159;45.634;9.420;2023-06-04T11:02:58;8.15;;;6.57;;
53269;SDS011;39159;45.634;9.420;2023-06-04T11:05:34;8.35;;;5.78;;
53269;SDS011;39159;45.634;9.420;2023-06-04T11:08:04;15.85;;;13.48;;
53269;SDS011;39159;45.634;9.420;2023-06-04T11:10:37;17.42;;;11.25;;
53269;SDS011;39159;45.634;9.420;2023-06-04T11:13:05;8.43;;;6.97;;
53269;SDS011;39159;45.634;9.420;2023-06-04T11:15:37;7.90;;;6.43;;
53269;SDS011;39159;45.634;9.420;2023-06-04T11:18:17;8.18;;;6.43;;
53269;SDS011;39159;45.634;9.420;2023-06-04T11:20:48;8.03;;;6.63;;
53269;SDS011;39159;45.634;9.420;2023-06-04T11:23:15;8.32;;;6.93;;
53269;SDS011;39159;45.634;9.420;2023-06-04T11:25:41;8.18;;;6.25;;
53269;SDS011;39159;45.634;9.420;2023-06-04T11:28:14;8.52;;;7.00;;
53269;SDS011;39159;45.634;9.420;2023-06-04T11:30:43;8.70;;;7.38;;
53269;SDS011;39159;45.634;9.420;2023-06-04T11:33:09;10.82;;;7.82;;
53269;SDS011;39159;45.634;9.420;2023-06-04T11:35:43;10.38;;;8.07;;
53269;SDS011;39159;45.634;9.420;2023-06-04T11:38:09;11.02;;;7.68;;
53269;SDS011;39159;45.634;9.420;2023-06-04T11:40:35;12.02;;;8.02;;
53269;SDS011;39159;45.634;9.420;2023-06-04T11:43:00;11.13;;;7.97;;
53269;SDS011;39159;45.634;9.420;2023-06-04T11:45:27;10.10;;;7.95;;
53269;SDS011;39159;45.634;9.420;2023-06-04T11:47:55;13.07;;;7.95;;
53269;SDS011;39159;45.634;9.420;2023-06-04T11:50:22;9.75;;;7.35;;
53269;SDS011;39159;45.634;9.420;2023-06-04T11:52:49;10.80;;;7.63;;
53269;SDS011;39159;45.634;9.420;2023-06-04T11:55:17;10.88;;;7.07;;
53269;SDS011;39159;45.634;9.420;2023-06-04T11:57:43;7.43;;;6.30;;
53269;SDS011;39159;45.634;9.420;2023-06-04T12:00:09;13.90;;;8.05;;
53269;SDS011;39159;45.634;9.420;2023-06-04T12:02:36;15.60;;;7.43;;
53269;SDS011;39159;45.634;9.420;2023-06-04T12:05:14;8.95;;;6.70;;
53269;SDS011;39159;45.634;9.420;2023-06-04T12:07:43;12.18;;;8.55;;
53269;SDS011;39159;45.634;9.420;2023-06-04T12:10:09;9.60;;;7.07;;
53269;SDS011;39159;45.634;9.420;2023-06-04T12:12:36;9.07;;;7.10;;
53269;SDS011;39159;45.634;9.420;2023-06-04T12:15:02;9.88;;;8.07;;
53269;SDS011;39159;45.634;9.420;2023-06-04T12:17:30;10.45;;;8.07;;
53269;SDS011;39159;45.634;9.420;2023-06-04T12:19:57;7.75;;;6.95;;
53269;SDS011;39159;45.634;9.420;2023-06-04T12:22:23;9.90;;;8.18;;
53269;SDS011;39159;45.634;9.420;2023-06-04T12:24:56;8.68;;;7.45;;
53269;SDS011;39159;45.634;9.420;2023-06-04T12:27:23;10.40;;;7.68;;
53269;SDS011;39159;45.634;9.420;2023-06-04T12:29:59;11.45;;;7.70;;
53269;SDS011;39159;45.634;9.420;2023-06-04T12:32:27;9.13;;;6.25;;
53269;SDS011;39159;45.634;9.420;2023-06-04T12:34:53;7.63;;;5.97;;
53269;SDS011;39159;45.634;9.420;2023-06-04T12:37:19;7.53;;;5.68;;
53269;SDS011;39159;45.634;9.420;2023-06-04T12:39:50;7.55;;;4.75;;
53269;SDS011;39159;45.634;9.420;2023-06-04T12:42:15;5.90;;;5.20;;
53269;SDS011;39159;45.634;9.420;2023-06-04T12:44:44;6.70;;;5.20;;
53269;SDS011;39159;45.634;9.420;2023-06-04T12:47:10;5.80;;;5.18;;
53269;SDS011;39159;45.634;9.420;2023-06-04T12:49:36;6.78;;;5.20;;
53269;SDS011;39159;45.634;9.420;2023-06-04T12:52:02;5.03;;;4.53;;
53269;SDS011;39159;45.634;9.420;2023-06-04T12:54:28;5.80;;;4.57;;
53269;SDS011;39159;45.634;9.420;2023-06-04T12:56:54;5.57;;;4.15;;
53269;SDS011;39159;45.634;9.420;2023-06-04T12:59:21;7.07;;;4.40;;
53269;SDS011;39159;45.634;9.420;2023-06-04T13:01:47;4.80;;;4.00;;
53269;SDS011;39159;45.634;9.420;2023-06-04T13:04:13;5.28;;;3.75;;
53269;SDS011;39159;45.634;9.420;2023-06-04T13:06:39;4.70;;;3.95;;
53269;SDS011;39159;45.634;9.420;2023-06-04T13:09:05;5.90;;;3.33;;
53269;SDS011;39159;45.634;9.420;2023-06-04T13:11:43;3.65;;;3.00;;
53269;SDS011;39159;45.634;9.420;2023-06-04T13:14:09;4.63;;;3.78;;
53269;SDS011;39159;45.634;9.420;2023-06-04T13:16:35;5.30;;;3.70;;
53269;SDS011;39159;45.634;9.420;2023-06-04T13:19:01;4.10;;;3.50;;
53269;SDS011;39159;45.634;9.420;2023-06-04T13:21:27;4.57;;;3.10;;
53269;SDS011;39159;45.634;9.420;2023-06-04T13:23:52;4.93;;;3.70;;
53269;SDS011;39159;45.634;9.420;2023-06-04T13:26:18;4.47;;;3.30;;
53269;SDS011;39159;45.634;9.420;2023-06-04T13:28:44;4.35;;;3.38;;
53269;SDS011;39159;45.634;9.420;2023-06-04T13:31:10;3.58;;;3.17;;
53269;SDS011;39159;45.634;9.420;2023-06-04T13:33:36;3.80;;;3.40;;
53269;SDS011;39159;45.634;9.420;2023-06-04T13:36:02;3.58;;;3.10;;
53269;SDS011;39159;45.634;9.420;2023-06-04T13:38:28;5.90;;;2.90;;
53269;SDS011;39159;45.634;9.420;2023-06-04T13:40:54;4.95;;;3.38;;
53269;SDS011;39159;45.634;9.420;2023-06-04T13:43:19;3.67;;;3.30;;
53269;SDS011;39159;45.634;9.420;2023-06-04T13:45:45;4.07;;;2.90;;
53269;SDS011;39159;45.634;9.420;2023-06-04T13:48:12;3.50;;;3.20;;
53269;SDS011;39159;45.634;9.420;2023-06-04T13:50:37;4.57;;;3.10;;
53269;SDS011;39159;45.634;9.420;2023-06-04T13:53:03;4.03;;;3.20;;
53269;SDS011;39159;45.634;9.420;2023-06-04T13:55:29;5.85;;;3.05;;
53269;SDS011;39159;45.634;9.420;2023-06-04T13:57:55;5.93;;;3.60;;
53269;SDS011;39159;45.634;9.420;2023-06-04T14:00:20;3.47;;;2.70;;
53269;SDS011;39159;45.634;9.420;2023-06-04T14:02:47;3.63;;;3.13;;
53269;SDS011;39159;45.634;9.420;2023-06-04T14:05:13;5.70;;;2.80;;
53269;SDS011;39159;45.634;9.420;2023-06-04T14:07:38;2.65;;;2.45;;
53269;SDS011;39159;45.634;9.420;2023-06-04T14:10:04;3.63;;;2.40;;
53269;SDS011;39159;45.634;9.420;2023-06-04T14:12:30;2.40;;;2.20;;
53269;SDS011;39159;45.634;9.420;2023-06-04T14:14:55;3.55;;;2.22;;
53269;SDS011;39159;45.634;9.420;2023-06-04T14:17:21;2.85;;;2.35;;
53269;SDS011;39159;45.634;9.420;2023-06-04T14:19:46;2.10;;;1.90;;
53269;SDS011;39159;45.634;9.420;2023-06-04T14:22:11;3.05;;;2.38;;
53269;SDS011;39159;45.634;9.420;2023-06-04T14:24:37;6.70;;;2.70;;
53269;SDS011;39159;45.634;9.420;2023-06-04T14:27:04;2.83;;;2.10;;
53269;SDS011;39159;45.634;9.420;2023-06-04T14:29:31;2.88;;;2.10;;
53269;SDS011;39159;45.634;9.420;2023-06-04T14:31:57;3.95;;;1.95;;
53269;SDS011;39159;45.634;9.420;2023-06-04T14:34:23;2.47;;;1.90;;
53269;SDS011;39159;45.634;9.420;2023-06-04T14:36:48;2.63;;;2.10;;
53269;SDS011;39159;45.634;9.420;2023-06-04T14:39:13;2.63;;;2.08;;
53269;SDS011;39159;45.634;9.420;2023-06-04T14:41:39;2.60;;;2.35;;